sensor_id;sensor_type;location;lat;lon;timestamp;temperature;humidity
46085;DHT22;31823;47.032;8.310;2023-04-03T00:02:15;6.20;99.90
46085;DHT22;31823;47.032;8.310;2023-04-03T00:04:41;6.20;99.90
46085;DHT22;31823;47.032;8.310;2023-04-03T00:07:07;6.20;99.90
46085;DHT22;31823;47.032;8.310;2023-04-03T00:09:32;6.20;99.90
46085;DHT22;31823;47.032;8.310;2023-04-03T00:11:58;6.20;99.90
46085;DHT22;31823;47.032;8.310;2023-04-03T00:14:24;6.20;99.90
46085;DHT22;31823;47.032;8.310;2023-04-03T00:16:49;6.20;99.90
46085;DHT22;31823;47.032;8.310;2023-04-03T00:19:15;6.20;99.90
46085;DHT22;31823;47.032;8.310;2023-04-03T00:21:40;6.20;99.90
46085;DHT22;31823;47.032;8.310;2023-04-03T00:24:06;6.20;99.90
46085;DHT22;31823;47.032;8.310;2023-04-03T00:26:32;6.30;99.90
46085;DHT22;31823;47.032;8.310;2023-04-03T00:28:58;6.30;99.90
46085;DHT22;31823;47.032;8.310;2023-04-03T00:31:23;6.30;99.90
46085;DHT22;31823;47.032;8.310;2023-04-03T00:33:49;6.30;99.90
46085;DHT22;31823;47.032;8.310;2023-04-03T00:36:15;6.30;99.90
46085;DHT22;31823;47.032;8.310;2023-04-03T00:38:41;6.20;99.90
46085;DHT22;31823;47.032;8.310;2023-04-03T00:41:06;6.20;99.90
46085;DHT22;31823;47.032;8.310;2023-04-03T00:43:32;6.20;99.90
46085;DHT22;31823;47.032;8.310;2023-04-03T00:46:01;6.30;99.90
46085;DHT22;31823;47.032;8.310;2023-04-03T00:48:31;6.20;99.90
46085;DHT22;31823;47.032;8.310;2023-04-03T00:50:58;6.30;99.90
46085;DHT22;31823;47.032;8.310;2023-04-03T00:53:30;6.40;99.90
46085;DHT22;31823;47.032;8.310;2023-04-03T00:55:58;6.40;99.90
46085;DHT22;31823;47.032;8.310;2023-04-03T00:58:58;6.30;99.90
46085;DHT22;31823;47.032;8.310;2023-04-03T01:01:27;6.40;99.90
46085;DHT22;31823;47.032;8.310;2023-04-03T01:03:53;6.40;99.90
46085;DHT22;31823;47.032;8.310;2023-04-03T01:06:32;6.50;99.90
46085;DHT22;31823;47.032;8.310;2023-04-03T01:08:59;6.60;99.90
46085;DHT22;31823;47.032;8.310;2023-04-03T01:11:25;6.60;99.90
46085;DHT22;31823;47.032;8.310;2023-04-03T01:13:51;6.60;99.90
46085;DHT22;31823;47.032;8.310;2023-04-03T01:16:17;6.60;99.90
46085;DHT22;31823;47.032;8.310;2023-04-03T01:18:44;6.70;99.90
46085;DHT22;31823;47.032;8.310;2023-04-03T01:24:37;6.70;99.90
46085;DHT22;31823;47.032;8.310;2023-04-03T01:27:06;6.60;99.90
46085;DHT22;31823;47.032;8.310;2023-04-03T01:29:32;6.60;99.90
46085;DHT22;31823;47.032;8.310;2023-04-03T01:32:00;6.60;99.90
46085;DHT22;31823;47.032;8.310;2023-04-03T01:34:27;6.80;99.90
46085;DHT22;31823;47.032;8.310;2023-04-03T01:36:53;6.60;99.90
46085;DHT22;31823;47.032;8.310;2023-04-03T01:39:19;6.60;99.90
46085;DHT22;31823;47.032;8.310;2023-04-03T01:41:45;6.60;99.90
46085;DHT22;31823;47.032;8.310;2023-04-03T01:44:11;6.50;99.90
46085;DHT22;31823;47.032;8.310;2023-04-03T01:46:37;6.50;99.90
46085;DHT22;31823;47.032;8.310;2023-04-03T01:49:03;6.30;99.90
46085;DHT22;31823;47.032;8.310;2023-04-03T01:51:29;6.40;99.90
46085;DHT22;31823;47.032;8.310;2023-04-03T01:53:55;6.50;99.90
46085;DHT22;31823;47.032;8.310;2023-04-03T01:56:21;6.80;99.90
46085;DHT22;31823;47.032;8.310;2023-04-03T01:58:46;6.70;99.90
46085;DHT22;31823;47.032;8.310;2023-04-03T02:01:12;6.70;99.90
46085;DHT22;31823;47.032;8.310;2023-04-03T02:03:38;6.70;99.90
46085;DHT22;31823;47.032;8.310;2023-04-03T02:06:03;6.70;99.90
46085;DHT22;31823;47.032;8.310;2023-04-03T02:08:29;6.60;99.90
46085;DHT22;31823;47.032;8.310;2023-04-03T02:10:55;6.70;99.90
46085;DHT22;31823;47.032;8.310;2023-04-03T02:13:20;6.60;99.90
46085;DHT22;31823;47.032;8.310;2023-04-03T02:15:46;6.50;99.90
46085;DHT22;31823;47.032;8.310;2023-04-03T02:18:13;6.50;99.90
46085;DHT22;31823;47.032;8.310;2023-04-03T02:20:38;6.50;99.90
46085;DHT22;31823;47.032;8.310;2023-04-03T02:23:04;6.50;99.90
46085;DHT22;31823;47.032;8.310;2023-04-03T02:25:31;6.40;99.90
46085;DHT22;31823;47.032;8.310;2023-04-03T02:27:57;6.40;99.90
46085;DHT22;31823;47.032;8.310;2023-04-03T02:30:22;6.30;99.90
46085;DHT22;31823;47.032;8.310;2023-04-03T02:32:48;6.20;99.90
46085;DHT22;31823;47.032;8.310;2023-04-03T02:35:13;6.10;99.90
46085;DHT22;31823;47.032;8.310;2023-04-03T02:37:39;6.20;99.90
46085;DHT22;31823;47.032;8.310;2023-04-03T02:40:06;6.30;99.90
46085;DHT22;31823;47.032;8.310;2023-04-03T02:42:32;6.10;99.90
46085;DHT22;31823;47.032;8.310;2023-04-03T02:44:57;6.10;99.90
46085;DHT22;31823;47.032;8.310;2023-04-03T02:47:23;6.00;99.90
46085;DHT22;31823;47.032;8.310;2023-04-03T02:49:48;6.10;99.90
46085;DHT22;31823;47.032;8.310;2023-04-03T02:52:14;6.10;99.90
46085;DHT22;31823;47.032;8.310;2023-04-03T02:54:40;6.10;99.90
46085;DHT22;31823;47.032;8.310;2023-04-03T02:57:06;5.90;99.90
46085;DHT22;31823;47.032;8.310;2023-04-03T02:59:35;6.00;99.90
46085;DHT22;31823;47.032;8.310;2023-04-03T03:02:00;5.80;99.90
46085;DHT22;31823;47.032;8.310;2023-04-03T03:04:26;5.80;99.90
46085;DHT22;31823;47.032;8.310;2023-04-03T03:06:51;5.80;99.90
46085;DHT22;31823;47.032;8.310;2023-04-03T03:09:18;5.80;99.90
46085;DHT22;31823;47.032;8.310;2023-04-03T03:11:43;5.70;99.90
46085;DHT22;31823;47.032;8.310;2023-04-03T03:14:09;5.70;99.90
46085;DHT22;31823;47.032;8.310;2023-04-03T03:16:35;5.70;99.90
46085;DHT22;31823;47.032;8.310;2023-04-03T03:19:01;5.70;99.90
46085;DHT22;31823;47.032;8.310;2023-04-03T03:21:27;5.80;99.90
46085;DHT22;31823;47.032;8.310;2023-04-03T03:23:52;5.70;99.90
46085;DHT22;31823;47.032;8.310;2023-04-03T03:26:18;5.60;99.90
46085;DHT22;31823;47.032;8.310;2023-04-03T03:28:44;5.60;99.90
46085;DHT22;31823;47.032;8.310;2023-04-03T03:31:10;5.60;99.90
46085;DHT22;31823;47.032;8.310;2023-04-03T03:33:37;5.60;99.90
46085;DHT22;31823;47.032;8.310;2023-04-03T03:36:03;5.50;99.90
46085;DHT22;31823;47.032;8.310;2023-04-03T03:38:28;5.40;99.90
46085;DHT22;31823;47.032;8.310;2023-04-03T03:40:54;5.40;99.90
46085;DHT22;31823;47.032;8.310;2023-04-03T03:43:20;5.40;99.90
46085;DHT22;31823;47.032;8.310;2023-04-03T03:45:50;5.40;99.90
46085;DHT22;31823;47.032;8.310;2023-04-03T03:48:15;5.40;99.90
46085;DHT22;31823;47.032;8.310;2023-04-03T03:50:41;5.30;99.90
46085;DHT22;31823;47.032;8.310;2023-04-03T03:53:07;5.40;99.90
46085;DHT22;31823;47.032;8.310;2023-04-03T03:55:32;5.50;99.90
46085;DHT22;31823;47.032;8.310;2023-04-03T03:57:58;5.30;99.90
46085;DHT22;31823;47.032;8.310;2023-04-03T04:00:23;5.20;99.90
46085;DHT22;31823;47.032;8.310;2023-04-03T04:02:49;5.20;99.90
46085;DHT22;31823;47.032;8.310;2023-04-03T04:05:14;5.30;99.90
46085;DHT22;31823;47.032;8.310;2023-04-03T04:07:40;5.30;99.90
46085;DHT22;31823;47.032;8.310;2023-04-03T04:10:06;5.40;99.90
46085;DHT22;31823;47.032;8.310;2023-04-03T04:12:32;5.30;99.90
46085;DHT22;31823;47.032;8.310;2023-04-03T04:14:57;5.30;99.90
46085;DHT22;31823;47.032;8.310;2023-04-03T04:17:23;5.20;99.90
46085;DHT22;31823;47.032;8.310;2023-04-03T04:19:48;5.30;99.90
46085;DHT22;31823;47.032;8.310;2023-04-03T04:22:14;5.20;99.90
46085;DHT22;31823;47.032;8.310;2023-04-03T04:24:39;5.20;99.90
46085;DHT22;31823;47.032;8.310;2023-04-03T04:27:05;5.20;99.90
46085;DHT22;31823;47.032;8.310;2023-04-03T04:29:31;5.20;99.90
46085;DHT22;31823;47.032;8.310;2023-04-03T04:32:01;5.30;99.90
46085;DHT22;31823;47.032;8.310;2023-04-03T04:34:28;5.30;99.90
46085;DHT22;31823;47.032;8.310;2023-04-03T04:36:53;5.10;99.90
46085;DHT22;31823;47.032;8.310;2023-04-03T04:39:19;5.10;99.90
46085;DHT22;31823;47.032;8.310;2023-04-03T04:41:44;5.10;99.90
46085;DHT22;31823;47.032;8.310;2023-04-03T04:44:10;5.00;99.90
46085;DHT22;31823;47.032;8.310;2023-04-03T04:46:35;5.00;99.90
46085;DHT22;31823;47.032;8.310;2023-04-03T04:49:01;5.10;99.90
46085;DHT22;31823;47.032;8.310;2023-04-03T04:51:27;4.90;99.90
46085;DHT22;31823;47.032;8.310;2023-04-03T04:53:52;5.00;99.90
46085;DHT22;31823;47.032;8.310;2023-04-03T04:56:18;5.00;99.90
46085;DHT22;31823;47.032;8.310;2023-04-03T04:58:43;5.00;99.90
46085;DHT22;31823;47.032;8.310;2023-04-03T05:01:10;5.00;99.90
46085;DHT22;31823;47.032;8.310;2023-04-03T05:03:36;4.90;99.90
46085;DHT22;31823;47.032;8.310;2023-04-03T05:06:02;5.00;99.90
46085;DHT22;31823;47.032;8.310;2023-04-03T05:08:28;4.90;99.90
46085;DHT22;31823;47.032;8.310;2023-04-03T05:10:53;4.80;99.90
46085;DHT22;31823;47.032;8.310;2023-04-03T05:13:19;4.90;99.90
46085;DHT22;31823;47.032;8.310;2023-04-03T05:15:45;4.90;99.90
46085;DHT22;31823;47.032;8.310;2023-04-03T05:18:11;5.00;99.90
46085;DHT22;31823;47.032;8.310;2023-04-03T05:20:38;4.80;99.90
46085;DHT22;31823;47.032;8.310;2023-04-03T05:23:03;4.90;99.90
46085;DHT22;31823;47.032;8.310;2023-04-03T05:25:29;4.70;99.90
46085;DHT22;31823;47.032;8.310;2023-04-03T05:27:55;4.60;99.90
46085;DHT22;31823;47.032;8.310;2023-04-03T05:30:21;4.60;99.90
46085;DHT22;31823;47.032;8.310;2023-04-03T05:32:46;4.60;99.90
46085;DHT22;31823;47.032;8.310;2023-04-03T05:35:12;4.50;99.90
46085;DHT22;31823;47.032;8.310;2023-04-03T05:37:38;4.50;99.90
46085;DHT22;31823;47.032;8.310;2023-04-03T05:40:05;4.60;99.90
46085;DHT22;31823;47.032;8.310;2023-04-03T05:42:30;4.60;99.90
46085;DHT22;31823;47.032;8.310;2023-04-03T05:44:56;4.60;99.90
46085;DHT22;31823;47.032;8.310;2023-04-03T05:47:22;4.40;99.90
46085;DHT22;31823;47.032;8.310;2023-04-03T05:49:47;4.40;99.90
46085;DHT22;31823;47.032;8.310;2023-04-03T05:52:28;4.40;99.90
46085;DHT22;31823;47.032;8.310;2023-04-03T05:54:54;4.30;99.90
46085;DHT22;31823;47.032;8.310;2023-04-03T05:57:20;4.30;99.90
46085;DHT22;31823;47.032;8.310;2023-04-03T05:59:46;4.30;99.90
46085;DHT22;31823;47.032;8.310;2023-04-03T06:02:14;4.30;99.90
46085;DHT22;31823;47.032;8.310;2023-04-03T06:04:40;4.30;99.90
46085;DHT22;31823;47.032;8.310;2023-04-03T06:07:07;4.30;99.90
46085;DHT22;31823;47.032;8.310;2023-04-03T06:09:35;4.30;99.90
46085;DHT22;31823;47.032;8.310;2023-04-03T06:12:01;4.30;99.90
46085;DHT22;31823;47.032;8.310;2023-04-03T06:14:27;4.50;99.90
46085;DHT22;31823;47.032;8.310;2023-04-03T06:16:53;4.50;99.90
46085;DHT22;31823;47.032;8.310;2023-04-03T06:19:20;4.30;99.90
46085;DHT22;31823;47.032;8.310;2023-04-03T06:21:46;4.20;99.90
46085;DHT22;31823;47.032;8.310;2023-04-03T06:24:15;4.20;99.90
46085;DHT22;31823;47.032;8.310;2023-04-03T06:26:42;4.20;99.90
46085;DHT22;31823;47.032;8.310;2023-04-03T06:29:08;4.10;99.90
46085;DHT22;31823;47.032;8.310;2023-04-03T06:31:34;4.00;99.90
46085;DHT22;31823;47.032;8.310;2023-04-03T06:33:59;4.10;99.90
46085;DHT22;31823;47.032;8.310;2023-04-03T06:36:25;4.10;99.90
46085;DHT22;31823;47.032;8.310;2023-04-03T06:38:51;4.10;99.90
46085;DHT22;31823;47.032;8.310;2023-04-03T06:41:17;4.10;99.90
46085;DHT22;31823;47.032;8.310;2023-04-03T06:43:43;4.10;99.90
46085;DHT22;31823;47.032;8.310;2023-04-03T06:46:17;4.20;99.90
46085;DHT22;31823;47.032;8.310;2023-04-03T06:48:44;3.90;99.90
46085;DHT22;31823;47.032;8.310;2023-04-03T06:53:42;3.80;99.90
46085;DHT22;31823;47.032;8.310;2023-04-03T06:56:08;4.00;99.90
46085;DHT22;31823;47.032;8.310;2023-04-03T06:58:33;3.90;99.90
46085;DHT22;31823;47.032;8.310;2023-04-03T07:00:59;3.90;99.90
46085;DHT22;31823;47.032;8.310;2023-04-03T07:03:25;4.10;99.90
46085;DHT22;31823;47.032;8.310;2023-04-03T07:05:50;4.00;99.90
46085;DHT22;31823;47.032;8.310;2023-04-03T07:08:16;3.90;99.90
46085;DHT22;31823;47.032;8.310;2023-04-03T07:10:42;4.00;99.90
46085;DHT22;31823;47.032;8.310;2023-04-03T07:13:07;4.00;99.90
46085;DHT22;31823;47.032;8.310;2023-04-03T07:15:33;4.00;99.90
46085;DHT22;31823;47.032;8.310;2023-04-03T07:17:58;4.00;99.90
46085;DHT22;31823;47.032;8.310;2023-04-03T07:20:24;3.90;99.90
46085;DHT22;31823;47.032;8.310;2023-04-03T07:22:50;4.10;99.90
46085;DHT22;31823;47.032;8.310;2023-04-03T07:25:16;4.30;99.90
46085;DHT22;31823;47.032;8.310;2023-04-03T07:27:42;4.10;99.90
46085;DHT22;31823;47.032;8.310;2023-04-03T07:30:08;4.10;99.90
46085;DHT22;31823;47.032;8.310;2023-04-03T07:32:34;4.00;99.90
46085;DHT22;31823;47.032;8.310;2023-04-03T07:35:00;3.90;99.90
46085;DHT22;31823;47.032;8.310;2023-04-03T07:37:26;4.10;99.90
46085;DHT22;31823;47.032;8.310;2023-04-03T07:39:51;4.10;99.90
46085;DHT22;31823;47.032;8.310;2023-04-03T07:42:17;4.00;99.90
46085;DHT22;31823;47.032;8.310;2023-04-03T07:44:43;4.10;99.90
46085;DHT22;31823;47.032;8.310;2023-04-03T07:47:09;4.00;99.90
46085;DHT22;31823;47.032;8.310;2023-04-03T07:49:34;4.00;99.90
46085;DHT22;31823;47.032;8.310;2023-04-03T07:52:03;4.10;99.90
46085;DHT22;31823;47.032;8.310;2023-04-03T07:54:29;4.30;99.90
46085;DHT22;31823;47.032;8.310;2023-04-03T07:56:55;4.20;99.90
46085;DHT22;31823;47.032;8.310;2023-04-03T07:59:22;4.30;99.90
46085;DHT22;31823;47.032;8.310;2023-04-03T08:01:47;4.00;99.90
46085;DHT22;31823;47.032;8.310;2023-04-03T08:04:13;4.00;99.90
46085;DHT22;31823;47.032;8.310;2023-04-03T08:06:38;3.90;99.90
46085;DHT22;31823;47.032;8.310;2023-04-03T08:09:04;4.00;99.90
46085;DHT22;31823;47.032;8.310;2023-04-03T08:11:30;4.10;99.90
46085;DHT22;31823;47.032;8.310;2023-04-03T08:13:56;4.10;99.90
46085;DHT22;31823;47.032;8.310;2023-04-03T08:16:23;4.00;99.90
46085;DHT22;31823;47.032;8.310;2023-04-03T08:18:52;4.00;99.90
46085;DHT22;31823;47.032;8.310;2023-04-03T08:21:17;4.10;99.90
46085;DHT22;31823;47.032;8.310;2023-04-03T08:23:43;4.10;99.90
46085;DHT22;31823;47.032;8.310;2023-04-03T08:26:14;4.00;99.90
46085;DHT22;31823;47.032;8.310;2023-04-03T08:28:41;3.90;99.90
46085;DHT22;31823;47.032;8.310;2023-04-03T08:31:11;4.10;99.90
46085;DHT22;31823;47.032;8.310;2023-04-03T08:33:39;4.10;99.90
46085;DHT22;31823;47.032;8.310;2023-04-03T08:36:14;4.10;99.90
46085;DHT22;31823;47.032;8.310;2023-04-03T08:38:40;4.10;99.90
46085;DHT22;31823;47.032;8.310;2023-04-03T08:49:11;4.20;99.90
46085;DHT22;31823;47.032;8.310;2023-04-03T08:51:40;4.10;99.90
46085;DHT22;31823;47.032;8.310;2023-04-03T08:57:05;4.10;99.90
46085;DHT22;31823;47.032;8.310;2023-04-03T08:59:35;4.40;99.90
46085;DHT22;31823;47.032;8.310;2023-04-03T09:02:13;4.50;99.90
46085;DHT22;31823;47.032;8.310;2023-04-03T09:04:42;4.40;99.90
46085;DHT22;31823;47.032;8.310;2023-04-03T09:07:23;4.30;99.90
46085;DHT22;31823;47.032;8.310;2023-04-03T09:09:51;4.50;99.90
46085;DHT22;31823;47.032;8.310;2023-04-03T09:12:25;4.60;99.90
46085;DHT22;31823;47.032;8.310;2023-04-03T09:23:26;4.60;99.90
46085;DHT22;31823;47.032;8.310;2023-04-03T09:25:58;4.50;99.90
46085;DHT22;31823;47.032;8.310;2023-04-03T09:28:26;4.60;99.90
46085;DHT22;31823;47.032;8.310;2023-04-03T09:30:53;4.90;99.90
46085;DHT22;31823;47.032;8.310;2023-04-03T09:33:19;4.90;99.90
46085;DHT22;31823;47.032;8.310;2023-04-03T09:35:47;4.90;99.90
46085;DHT22;31823;47.032;8.310;2023-04-03T09:38:14;4.70;99.90
46085;DHT22;31823;47.032;8.310;2023-04-03T09:43:26;5.10;99.90
46085;DHT22;31823;47.032;8.310;2023-04-03T09:45:52;4.80;99.90
46085;DHT22;31823;47.032;8.310;2023-04-03T09:48:24;5.00;99.90
46085;DHT22;31823;47.032;8.310;2023-04-03T09:53:38;5.00;99.90
46085;DHT22;31823;47.032;8.310;2023-04-03T09:58:50;4.80;99.90
46085;DHT22;31823;47.032;8.310;2023-04-03T10:06:31;5.00;99.90
46085;DHT22;31823;47.032;8.310;2023-04-03T10:09:02;4.80;99.90
46085;DHT22;31823;47.032;8.310;2023-04-03T10:11:30;4.90;99.90
46085;DHT22;31823;47.032;8.310;2023-04-03T10:13:57;4.80;99.90
46085;DHT22;31823;47.032;8.310;2023-04-03T10:16:53;4.90;99.90
46085;DHT22;31823;47.032;8.310;2023-04-03T10:19:43;5.10;99.90
46085;DHT22;31823;47.032;8.310;2023-04-03T10:28:20;5.00;99.90
46085;DHT22;31823;47.032;8.310;2023-04-03T10:31:31;5.00;99.90
46085;DHT22;31823;47.032;8.310;2023-04-03T10:34:29;5.10;99.90
46085;DHT22;31823;47.032;8.310;2023-04-03T10:37:01;5.10;99.90
46085;DHT22;31823;47.032;8.310;2023-04-03T10:39:54;4.80;99.90
46085;DHT22;31823;47.032;8.310;2023-04-03T10:42:39;4.90;99.90
46085;DHT22;31823;47.032;8.310;2023-04-03T10:45:44;4.90;99.90
46085;DHT22;31823;47.032;8.310;2023-04-03T10:55:55;5.10;99.90
46085;DHT22;31823;47.032;8.310;2023-04-03T11:01:22;5.10;99.90
46085;DHT22;31823;47.032;8.310;2023-04-03T11:03:55;5.00;99.90
46085;DHT22;31823;47.032;8.310;2023-04-03T11:06:25;5.20;99.90
46085;DHT22;31823;47.032;8.310;2023-04-03T11:09:03;5.10;99.90
46085;DHT22;31823;47.032;8.310;2023-04-03T11:11:37;5.10;99.90
46085;DHT22;31823;47.032;8.310;2023-04-03T11:16:46;5.20;99.90
46085;DHT22;31823;47.032;8.310;2023-04-03T11:19:17;5.20;99.90
46085;DHT22;31823;47.032;8.310;2023-04-03T11:22:16;5.10;99.90
46085;DHT22;31823;47.032;8.310;2023-04-03T11:25:14;5.10;99.90
46085;DHT22;31823;47.032;8.310;2023-04-03T11:30:19;5.40;99.90
46085;DHT22;31823;47.032;8.310;2023-04-03T11:35:49;5.30;99.90
46085;DHT22;31823;47.032;8.310;2023-04-03T11:38:38;5.40;99.90
46085;DHT22;31823;47.032;8.310;2023-04-03T11:41:08;5.50;99.90
46085;DHT22;31823;47.032;8.310;2023-04-03T12:46:21;5.90;99.90
46085;DHT22;31823;47.032;8.310;2023-04-03T12:51:36;6.00;99.90
46085;DHT22;31823;47.032;8.310;2023-04-03T12:54:19;6.20;99.90
46085;DHT22;31823;47.032;8.310;2023-04-03T12:56:45;6.30;99.90
46085;DHT22;31823;47.032;8.310;2023-04-03T12:59:23;6.20;99.90
46085;DHT22;31823;47.032;8.310;2023-04-03T13:02:00;6.10;99.90
46085;DHT22;31823;47.032;8.310;2023-04-03T13:04:27;6.00;99.90
46085;DHT22;31823;47.032;8.310;2023-04-03T13:06:54;6.10;99.90
46085;DHT22;31823;47.032;8.310;2023-04-03T13:09:21;6.30;99.90
46085;DHT22;31823;47.032;8.310;2023-04-03T13:11:49;6.10;99.90
46085;DHT22;31823;47.032;8.310;2023-04-03T13:14:18;6.10;99.90
46085;DHT22;31823;47.032;8.310;2023-04-03T13:17:12;6.30;99.90
46085;DHT22;31823;47.032;8.310;2023-04-03T13:19:38;6.30;99.90
46085;DHT22;31823;47.032;8.310;2023-04-03T13:22:11;6.30;99.90
46085;DHT22;31823;47.032;8.310;2023-04-03T13:24:43;6.30;99.90
46085;DHT22;31823;47.032;8.310;2023-04-03T13:27:11;6.20;99.90
46085;DHT22;31823;47.032;8.310;2023-04-03T13:29:38;6.30;99.90
46085;DHT22;31823;47.032;8.310;2023-04-03T13:32:05;6.30;99.90
46085;DHT22;31823;47.032;8.310;2023-04-03T13:34:42;6.20;99.90
46085;DHT22;31823;47.032;8.310;2023-04-03T13:37:21;6.20;99.90
46085;DHT22;31823;47.032;8.310;2023-04-03T13:39:57;6.20;99.90
46085;DHT22;31823;47.032;8.310;2023-04-03T13:42:26;6.20;99.90
46085;DHT22;31823;47.032;8.310;2023-04-03T13:45:22;6.20;99.90
46085;DHT22;31823;47.032;8.310;2023-04-03T13:47:50;6.40;99.90
46085;DHT22;31823;47.032;8.310;2023-04-03T13:50:23;6.30;99.90
46085;DHT22;31823;47.032;8.310;2023-04-03T13:53:03;6.20;99.90
46085;DHT22;31823;47.032;8.310;2023-04-03T13:55:31;6.20;99.90
46085;DHT22;31823;47.032;8.310;2023-04-03T14:03:07;6.40;99.90
46085;DHT22;31823;47.032;8.310;2023-04-03T14:05:37;6.40;99.90
46085;DHT22;31823;47.032;8.310;2023-04-03T14:08:02;6.30;99.90
46085;DHT22;31823;47.032;8.310;2023-04-03T14:10:29;6.20;99.90
46085;DHT22;31823;47.032;8.310;2023-04-03T14:12:55;6.20;99.90
46085;DHT22;31823;47.032;8.310;2023-04-03T14:15:27;6.30;99.90
46085;DHT22;31823;47.032;8.310;2023-04-03T14:17:53;6.30;99.90
46085;DHT22;31823;47.032;8.310;2023-04-03T14:20:23;6.40;99.90
46085;DHT22;31823;47.032;8.310;2023-04-03T14:22:49;6.30;99.90
46085;DHT22;31823;47.032;8.310;2023-04-03T14:25:16;6.40;99.90
46085;DHT22;31823;47.032;8.310;2023-04-03T14:27:45;6.50;99.90
46085;DHT22;31823;47.032;8.310;2023-04-03T14:30:37;6.50;99.90
46085;DHT22;31823;47.032;8.310;2023-04-03T14:33:03;6.50;99.90
46085;DHT22;31823;47.032;8.310;2023-04-03T14:35:29;6.40;99.90
46085;DHT22;31823;47.032;8.310;2023-04-03T14:37:55;6.40;99.90
46085;DHT22;31823;47.032;8.310;2023-04-03T14:40:24;6.30;99.90
46085;DHT22;31823;47.032;8.310;2023-04-03T14:42:50;6.30;99.90
46085;DHT22;31823;47.032;8.310;2023-04-03T14:45:17;6.20;99.90
46085;DHT22;31823;47.032;8.310;2023-04-03T14:47:49;6.20;99.90
46085;DHT22;31823;47.032;8.310;2023-04-03T14:50:19;6.20;99.90
46085;DHT22;31823;47.032;8.310;2023-04-03T14:52:47;6.20;99.90
46085;DHT22;31823;47.032;8.310;2023-04-03T14:55:16;6.10;99.90
46085;DHT22;31823;47.032;8.310;2023-04-03T14:57:42;6.10;99.90
46085;DHT22;31823;47.032;8.310;2023-04-03T15:00:14;6.20;99.90
46085;DHT22;31823;47.032;8.310;2023-04-03T15:02:40;6.20;99.90
46085;DHT22;31823;47.032;8.310;2023-04-03T15:05:09;6.20;99.90
46085;DHT22;31823;47.032;8.310;2023-04-03T15:07:40;6.30;99.90
46085;DHT22;31823;47.032;8.310;2023-04-03T15:10:28;6.30;99.90
46085;DHT22;31823;47.032;8.310;2023-04-03T15:12:54;6.40;99.90
46085;DHT22;31823;47.032;8.310;2023-04-03T15:15:21;6.40;99.90
46085;DHT22;31823;47.032;8.310;2023-04-03T15:17:51;6.30;99.90
46085;DHT22;31823;47.032;8.310;2023-04-03T15:20:22;6.30;99.90
46085;DHT22;31823;47.032;8.310;2023-04-03T15:22:49;6.40;99.90
46085;DHT22;31823;47.032;8.310;2023-04-03T15:25:15;6.40;99.90
46085;DHT22;31823;47.032;8.310;2023-04-03T15:27:41;6.30;99.90
46085;DHT22;31823;47.032;8.310;2023-04-03T15:30:11;6.20;99.90
46085;DHT22;31823;47.032;8.310;2023-04-03T15:32:38;6.30;99.90
46085;DHT22;31823;47.032;8.310;2023-04-03T15:35:04;6.40;99.90
46085;DHT22;31823;47.032;8.310;2023-04-03T15:37:30;6.30;99.90
46085;DHT22;31823;47.032;8.310;2023-04-03T15:39:55;6.20;99.90
46085;DHT22;31823;47.032;8.310;2023-04-03T15:42:21;6.30;99.90
46085;DHT22;31823;47.032;8.310;2023-04-03T15:44:46;6.30;99.90
46085;DHT22;31823;47.032;8.310;2023-04-03T15:47:16;6.20;99.90
46085;DHT22;31823;47.032;8.310;2023-04-03T15:49:42;6.30;99.90
46085;DHT22;31823;47.032;8.310;2023-04-03T15:52:08;6.40;99.90
46085;DHT22;31823;47.032;8.310;2023-04-03T15:54:37;6.20;99.90
46085;DHT22;31823;47.032;8.310;2023-04-03T15:57:02;6.30;99.90
46085;DHT22;31823;47.032;8.310;2023-04-03T15:59:28;6.30;99.90
46085;DHT22;31823;47.032;8.310;2023-04-03T16:01:56;6.30;99.90
46085;DHT22;31823;47.032;8.310;2023-04-03T16:04:21;6.10;99.90
46085;DHT22;31823;47.032;8.310;2023-04-03T16:06:47;6.00;99.90
46085;DHT22;31823;47.032;8.310;2023-04-03T16:09:13;6.00;99.90
46085;DHT22;31823;47.032;8.310;2023-04-03T16:11:39;5.90;99.90
46085;DHT22;31823;47.032;8.310;2023-04-03T16:14:06;5.90;99.90
46085;DHT22;31823;47.032;8.310;2023-04-03T16:16:32;5.80;99.90
46085;DHT22;31823;47.032;8.310;2023-04-03T16:18:58;5.80;99.90
46085;DHT22;31823;47.032;8.310;2023-04-03T16:21:24;5.90;99.90
46085;DHT22;31823;47.032;8.310;2023-04-03T16:23:50;5.90;99.90
46085;DHT22;31823;47.032;8.310;2023-04-03T16:26:15;5.90;99.90
46085;DHT22;31823;47.032;8.310;2023-04-03T16:28:42;5.90;99.90
46085;DHT22;31823;47.032;8.310;2023-04-03T16:31:08;5.90;99.90
46085;DHT22;31823;47.032;8.310;2023-04-03T16:33:34;5.80;99.90
46085;DHT22;31823;47.032;8.310;2023-04-03T16:36:00;5.70;99.90
46085;DHT22;31823;47.032;8.310;2023-04-03T16:38:26;5.60;99.90
46085;DHT22;31823;47.032;8.310;2023-04-03T16:40:51;5.70;99.90
46085;DHT22;31823;47.032;8.310;2023-04-03T16:43:23;5.70;99.90
46085;DHT22;31823;47.032;8.310;2023-04-03T16:45:48;5.70;99.90
46085;DHT22;31823;47.032;8.310;2023-04-03T16:48:14;5.70;99.90
46085;DHT22;31823;47.032;8.310;2023-04-03T16:50:40;5.60;99.90
46085;DHT22;31823;47.032;8.310;2023-04-03T16:53:06;5.60;99.90
46085;DHT22;31823;47.032;8.310;2023-04-03T16:55:36;5.60;99.90
46085;DHT22;31823;47.032;8.310;2023-04-03T16:58:02;5.70;99.90
46085;DHT22;31823;47.032;8.310;2023-04-03T17:00:30;5.60;99.90
46085;DHT22;31823;47.032;8.310;2023-04-03T17:02:56;5.70;99.90
46085;DHT22;31823;47.032;8.310;2023-04-03T17:05:21;5.70;99.90
46085;DHT22;31823;47.032;8.310;2023-04-03T17:07:47;5.60;99.90
46085;DHT22;31823;47.032;8.310;2023-04-03T17:10:13;5.50;99.90
46085;DHT22;31823;47.032;8.310;2023-04-03T17:12:39;5.40;99.90
46085;DHT22;31823;47.032;8.310;2023-04-03T17:15:05;5.50;99.90
46085;DHT22;31823;47.032;8.310;2023-04-03T17:17:31;5.50;99.90
46085;DHT22;31823;47.032;8.310;2023-04-03T17:19:56;5.60;99.90
46085;DHT22;31823;47.032;8.310;2023-04-03T17:22:22;5.50;99.90
46085;DHT22;31823;47.032;8.310;2023-04-03T17:24:48;5.50;99.90
46085;DHT22;31823;47.032;8.310;2023-04-03T17:27:13;5.40;99.90
46085;DHT22;31823;47.032;8.310;2023-04-03T17:29:39;5.40;99.90
46085;DHT22;31823;47.032;8.310;2023-04-03T17:32:05;5.30;99.90
46085;DHT22;31823;47.032;8.310;2023-04-03T17:34:30;5.40;99.90
46085;DHT22;31823;47.032;8.310;2023-04-03T17:36:58;5.40;99.90
46085;DHT22;31823;47.032;8.310;2023-04-03T17:39:23;5.40;99.90
46085;DHT22;31823;47.032;8.310;2023-04-03T17:41:49;5.30;99.90
46085;DHT22;31823;47.032;8.310;2023-04-03T17:44:15;5.30;99.90
46085;DHT22;31823;47.032;8.310;2023-04-03T17:46:41;5.20;99.90
46085;DHT22;31823;47.032;8.310;2023-04-03T17:49:07;5.20;99.90
46085;DHT22;31823;47.032;8.310;2023-04-03T17:51:34;5.10;99.90
46085;DHT22;31823;47.032;8.310;2023-04-03T17:54:00;5.20;99.90
46085;DHT22;31823;47.032;8.310;2023-04-03T17:56:26;5.10;99.90
46085;DHT22;31823;47.032;8.310;2023-04-03T17:58:54;5.20;99.90
46085;DHT22;31823;47.032;8.310;2023-04-03T18:01:28;5.10;99.90
46085;DHT22;31823;47.032;8.310;2023-04-03T18:03:56;5.10;99.90
46085;DHT22;31823;47.032;8.310;2023-04-03T18:06:26;5.20;99.90